Time;durP1;ratioP1;P1;durP2;ratioP2;P2;SDS_P1;SDS_P2;PMS_P1;PMS_P2;Temp;Humidity;BMP_temperature;BMP_pressure;BME280_temperature;BME280_humidity;BME280_pressure;Samples;Min_cycle;Max_cycle;Signal;HPM_P1;HPM_P2
2023/10/17 00:01:35;;;;;;;7.95;4.25;;;2.40;99.90;;;;;;5053331;28;20376;-67
2023/10/17 00:06:46;;;;;;;10.35;4.43;;;2.40;99.90;;;;;;5053174;28;20465;-63
2023/10/17 00:09:24;;;;;;;8.57;4.47;;;2.40;99.90;;;;;;5035302;28;20028;-64
2023/10/17 00:14:25;;;;;;;7.47;4.18;;;2.40;99.90;;;;;;5053291;28;20485;-64
2023/10/17 00:17:00;;;;;;;6.22;3.92;;;2.40;99.90;;;;;;5053120;28;20033;-64
2023/10/17 00:19:31;;;;;;;10.20;4.40;;;2.40;99.90;;;;;;5035712;28;20363;-64
2023/10/17 00:21:59;;;;;;;7.28;4.50;;;2.40;99.90;;;;;;5057334;28;20440;-64
2023/10/17 00:24:25;;;;;;;6.25;4.18;;;2.40;99.90;;;;;;5056725;28;20036;-63
2023/10/17 00:26:51;;;;;;;8.82;4.70;;;2.30;99.90;;;;;;5038840;28;20075;-63
2023/10/17 00:29:17;;;;;;;6.60;4.57;;;2.30;99.90;;;;;;5056989;28;20465;-64
2023/10/17 00:31:45;;;;;;;7.13;4.20;;;2.20;99.90;;;;;;5057069;28;20036;-64
2023/10/17 00:34:15;;;;;;;5.78;3.25;;;2.20;99.90;;;;;;5056648;28;20462;-65
2023/10/17 00:36:50;;;;;;;5.30;3.72;;;2.20;99.90;;;;;;5056577;28;20024;-64
2023/10/17 00:39:36;;;;;;;6.93;4.05;;;2.40;99.90;;;;;;5038389;28;20068;-64
2023/10/17 00:44:33;;;;;;;7.03;4.40;;;2.20;99.90;;;;;;5056396;28;20029;-64
2023/10/17 00:47:01;;;;;;;8.00;4.30;;;2.20;99.90;;;;;;5038332;28;20396;-64
2023/10/17 00:49:33;;;;;;;6.22;4.10;;;2.80;99.90;;;;;;5056387;28;20480;-64
2023/10/17 00:52:15;;;;;;;8.70;4.80;;;2.10;99.90;;;;;;5038676;28;20377;-64
2023/10/17 00:54:41;;;;;;;6.00;4.00;;;2.10;99.90;;;;;;5056261;28;20025;-64
2023/10/17 00:57:07;;;;;;;8.82;4.97;;;2.10;99.90;;;;;;5056144;28;20032;-63
2023/10/17 00:59:33;;;;;;;14.02;4.57;;;2.00;99.90;;;;;;5056088;28;20461;-64
2023/10/17 01:02:10;;;;;;;10.40;4.80;;;2.10;99.90;;;;;;5056418;28;20027;-64
2023/10/17 01:04:40;;;;;;;7.70;4.50;;;2.10;99.90;;;;;;5038386;28;20029;-64
2023/10/17 01:07:06;;;;;;;10.15;5.07;;;2.10;99.90;;;;;;5056215;28;20033;-64
2023/10/17 01:09:35;;;;;;;6.35;4.85;;;2.10;99.90;;;;;;5038285;28;20412;-68
2023/10/17 01:12:02;;;;;;;11.77;5.03;;;2.00;99.90;;;;;;5055980;28;20381;-66
2023/10/17 01:14:32;;;;;;;8.27;4.93;;;2.10;99.90;;;;;;5038022;28;20036;-64
2023/10/17 01:16:58;;;;;;;8.27;4.53;;;2.60;99.90;;;;;;5055856;28;20025;-64
2023/10/17 01:19:23;;;;;;;9.23;5.50;;;2.10;99.90;;;;;;5055762;28;20029;-64
2023/10/17 01:21:49;;;;;;;8.00;4.63;;;2.10;99.90;;;;;;5055912;28;20021;-66
2023/10/17 01:24:18;;;;;;;10.38;4.75;;;2.00;99.90;;;;;;5037947;28;20083;-64
2023/10/17 01:26:46;;;;;;;9.77;4.80;;;2.00;99.90;;;;;;5055805;28;20033;-65
2023/10/17 01:29:12;;;;;;;10.05;5.10;;;2.00;99.90;;;;;;5055570;28;20036;-64
2023/10/17 01:31:44;;;;;;;11.15;4.80;;;2.00;99.90;;;;;;5053900;28;20385;-64
2023/10/17 01:34:11;;;;;;;15.93;6.00;;;2.10;99.90;;;;;;5055593;28;20055;-63
2023/10/17 01:36:40;;;;;;;11.90;4.57;;;2.00;99.90;;;;;;5055456;28;20029;-64
2023/10/17 01:39:06;;;;;;;7.40;4.50;;;2.00;99.90;;;;;;5055437;28;20472;-64
2023/10/17 01:41:32;;;;;;;8.95;4.18;;;2.00;99.90;;;;;;5055050;28;20203;-65
2023/10/17 01:43:58;;;;;;;7.20;4.07;;;2.00;99.90;;;;;;5055477;28;20035;-64
2023/10/17 01:46:28;;;;;;;8.80;4.72;;;2.00;99.90;;;;;;5055107;28;20112;-64
2023/10/17 01:48:54;;;;;;;5.25;4.18;;;2.00;99.90;;;;;;5055159;28;20021;-65
2023/10/17 01:51:24;;;;;;;6.90;3.92;;;2.00;99.90;;;;;;5055182;28;20025;-64
2023/10/17 01:53:51;;;;;;;6.55;3.83;;;2.10;99.90;;;;;;5037144;28;20476;-64
2023/10/17 01:56:20;;;;;;;13.65;4.35;;;2.00;99.90;;;;;;5055111;28;20040;-64
2023/10/17 01:59:30;;;;;;;6.63;3.75;;;2.00;99.90;;;;;;5036995;28;20461;-64
2023/10/17 02:01:40;;;;;;;5.38;3.67;;;1.90;99.90;;;;;;5043985;28;20119;-64
2023/10/17 02:04:10;;;;;;;4.30;3.40;;;1.90;99.90;;;;;;5054829;28;20104;-63
2023/10/17 02:06:36;;;;;;;6.35;4.15;;;2.10;99.90;;;;;;5037426;28;20464;-64
2023/10/17 02:09:19;;;;;;;5.97;4.10;;;1.90;99.90;;;;;;5054977;28;20095;-64
2023/10/17 02:11:44;;;;;;;7.05;3.65;;;1.80;99.90;;;;;;5054774;28;20461;-64
2023/10/17 02:14:10;;;;;;;7.00;3.58;;;1.90;99.90;;;;;;5054641;28;20032;-64
2023/10/17 02:16:36;;;;;;;8.38;3.70;;;1.90;99.90;;;;;;5036708;28;20029;-64
2023/10/17 02:19:07;;;;;;;8.02;4.13;;;1.90;99.90;;;;;;5054434;28;20025;-64
2023/10/17 02:21:37;;;;;;;7.00;4.15;;;1.80;99.90;;;;;;5036838;28;20037;-64
2023/10/17 02:24:03;;;;;;;9.43;4.43;;;1.90;99.90;;;;;;5036576;28;20033;-64
2023/10/17 02:26:29;;;;;;;10.23;3.90;;;1.90;99.90;;;;;;5054350;28;20445;-64
2023/10/17 02:29:11;;;;;;;5.80;4.25;;;2.00;99.90;;;;;;5054152;28;20060;-64
2023/10/17 02:31:40;;;;;;;8.75;3.97;;;1.90;99.90;;;;;;5054432;28;20089;-64
2023/10/17 02:34:09;;;;;;;7.82;4.03;;;1.80;99.90;;;;;;5054166;28;20107;-64
2023/10/17 02:36:35;;;;;;;5.95;3.88;;;1.80;99.90;;;;;;5054329;28;20037;-64
2023/10/17 02:39:01;;;;;;;8.13;4.70;;;1.90;99.90;;;;;;5054238;28;20424;-64
2023/10/17 02:41:28;;;;;;;7.57;3.97;;;2.00;99.90;;;;;;5054325;28;20523;-64
2023/10/17 02:43:54;;;;;;;7.38;3.80;;;1.90;99.90;;;;;;5053863;28;20021;-63
2023/10/17 02:46:27;;;;;;;5.65;3.83;;;1.90;99.90;;;;;;5054056;28;20116;-64
2023/10/17 02:48:54;;;;;;;9.27;4.07;;;1.90;99.90;;;;;;5054121;28;20060;-64
2023/10/17 02:53:50;;;;;;;7.00;3.85;;;1.90;99.90;;;;;;5054008;28;20021;-63
2023/10/17 02:56:20;;;;;;;6.93;4.35;;;1.90;99.90;;;;;;5053958;28;20104;-63
2023/10/17 03:01:36;;;;;;;7.22;4.07;;;1.90;99.90;;;;;;5053939;28;20526;-64
2023/10/17 03:04:09;;;;;;;10.88;4.18;;;1.80;99.90;;;;;;5053831;28;20260;-64
2023/10/17 03:06:41;;;;;;;6.47;4.05;;;1.90;99.90;;;;;;5035876;28;20068;-64
2023/10/17 03:14:39;;;;;;;8.18;4.45;;;1.90;99.90;;;;;;5053437;28;20112;-64
2023/10/17 03:17:05;;;;;;;11.85;4.15;;;1.90;99.90;;;;;;5053777;28;20063;-64
2023/10/17 03:19:32;;;;;;;8.32;3.92;;;1.80;99.90;;;;;;5053650;28;20025;-64
2023/10/17 03:22:16;;;;;;;7.03;4.05;;;1.80;99.90;;;;;;5035759;28;20457;-64
2023/10/17 03:24:51;;;;;;;6.32;4.10;;;1.90;99.90;;;;;;5053819;28;20052;-64
2023/10/17 03:27:27;;;;;;;5.47;3.70;;;1.80;99.90;;;;;;5053831;28;20029;-63
2023/10/17 03:29:52;;;;;;;6.40;3.95;;;1.80;99.90;;;;;;5053609;28;20033;-63
2023/10/17 03:32:21;;;;;;;12.48;7.45;;;1.80;99.90;;;;;;5046655;28;20051;-64
2023/10/17 03:34:56;;;;;;;16.23;8.98;;;1.70;99.90;;;;;;5073733;28;20056;-64
2023/10/17 03:39:52;;;;;;;8.05;4.28;;;1.70;99.90;;;;;;5073596;28;20056;-64
2023/10/17 03:45:16;;;;;;;9.35;4.03;;;1.70;99.90;;;;;;5073549;28;20021;-64
2023/10/17 03:47:53;;;;;;;6.30;3.22;;;1.60;99.90;;;;;;5073808;28;20029;-64
2023/10/17 03:50:36;;;;;;;9.32;3.63;;;1.60;99.90;;;;;;5072778;28;20445;-64
2023/10/17 03:53:06;;;;;;;8.80;3.45;;;1.60;99.90;;;;;;5073904;28;20028;-63
2023/10/17 03:55:34;;;;;;;9.50;4.63;;;1.60;99.90;;;;;;5074276;28;20032;-63
2023/10/17 03:58:00;;;;;;;10.70;4.07;;;1.60;99.90;;;;;;5076263;28;20028;-64
2023/10/17 04:00:46;;;;;;;6.38;3.97;;;1.60;99.90;;;;;;5075673;28;20343;-64
2023/10/17 04:03:21;;;;;;;9.32;3.85;;;1.60;99.90;;;;;;5076789;28;20408;-63
2023/10/17 04:06:00;;;;;;;9.07;4.47;;;1.50;99.90;;;;;;5077076;28;20472;-64
2023/10/17 04:08:31;;;;;;;8.32;4.07;;;1.50;99.90;;;;;;5076872;28;20032;-63
2023/10/17 04:13:41;;;;;;;11.18;4.45;;;1.50;99.90;;;;;;5076885;28;20154;-64
2023/10/17 04:16:10;;;;;;;8.05;4.55;;;1.50;99.90;;;;;;5076992;28;20052;-64
2023/10/17 04:18:39;;;;;;;5.43;3.95;;;1.40;99.90;;;;;;5077143;28;20047;-65
2023/10/17 04:21:18;;;;;;;6.80;3.30;;;1.50;99.90;;;;;;5076885;28;20028;-64
2023/10/17 04:23:45;;;;;;;5.97;3.88;;;1.50;99.90;;;;;;5077160;28;20025;-69
2023/10/17 04:26:26;;;;;;;6.35;4.20;;;1.50;99.90;;;;;;5077050;28;20025;-67
2023/10/17 04:28:54;;;;;;;9.90;4.25;;;1.50;99.90;;;;;;5077340;28;20132;-72
2023/10/17 04:31:28;;;;;;;7.20;4.03;;;1.90;99.90;;;;;;5076867;28;20036;-64
2023/10/17 04:34:06;;;;;;;9.00;5.35;;;1.40;99.90;;;;;;5076792;28;20076;-64
2023/10/17 04:36:38;;;;;;;11.05;6.22;;;1.40;99.90;;;;;;5076735;28;20043;-65
2023/10/17 04:39:13;;;;;;;9.45;5.10;;;1.50;99.90;;;;;;5076531;28;20028;-64
2023/10/17 04:44:17;;;;;;;13.40;4.70;;;1.40;99.90;;;;;;5076636;28;20028;-58
2023/10/17 04:46:50;;;;;;;7.93;4.45;;;1.40;99.90;;;;;;5076515;28;20032;-58
2023/10/17 04:49:18;;;;;;;7.30;4.20;;;1.50;99.90;;;;;;5076309;28;20033;-64
2023/10/17 04:51:44;;;;;;;11.57;5.25;;;1.50;99.90;;;;;;5076587;28;20050;-64
2023/10/17 04:54:39;;;;;;;8.88;5.13;;;1.50;99.90;;;;;;5076399;28;20061;-64
2023/10/17 04:56:59;;;;;;;12.55;5.35;;;1.50;99.90;;;;;;5075659;28;20041;-64
2023/10/17 05:00:15;;;;;;;;;;;1.50;99.90;;;;;;5076237;28;20388;-64
2023/10/17 05:07:58;;;;;;;13.40;5.45;;;1.50;99.90;;;;;;5056030;28;20411;-64
2023/10/17 06:18:51;;;;;;;14.05;8.07;;;2.90;99.90;;;;;;5054134;28;20397;-64
2023/10/17 06:21:35;;;;;;;20.38;8.68;;;2.90;99.90;;;;;;5054551;28;20021;-64
2023/10/17 06:26:46;;;;;;;16.08;8.18;;;3.10;99.90;;;;;;5054259;28;20039;-63
2023/10/17 06:34:14;;;;;;;13.82;8.70;;;3.60;99.90;;;;;;5054325;28;20021;-64
2023/10/17 06:36:44;;;;;;;14.05;8.73;;;3.80;99.90;;;;;;5054308;28;20419;-64
2023/10/17 06:39:19;;;;;;;14.95;7.72;;;4.10;99.90;;;;;;5054244;28;20021;-64
2023/10/17 06:41:49;;;;;;;15.68;7.60;;;4.40;99.90;;;;;;5036451;28;20071;-63
2023/10/17 06:44:24;;;;;;;14.90;7.22;;;4.70;99.90;;;;;;5054214;28;20040;-63
2023/10/17 06:46:56;;;;;;;13.07;7.57;;;4.90;99.90;;;;;;5054100;28;20405;-63
2023/10/17 06:54:58;;;;;;;8.60;6.50;;;5.60;99.90;;;;;;5054066;28;20052;-63
2023/10/17 06:57:24;;;;;;;12.20;6.72;;;5.70;99.90;;;;;;5054017;28;20025;-64
2023/10/17 07:00:00;;;;;;;12.27;7.10;;;5.90;99.90;;;;;;5053849;28;20449;-64
2023/10/17 07:02:30;;;;;;;9.82;6.43;;;6.10;99.90;;;;;;5036291;28;20369;-63
2023/10/17 07:04:59;;;;;;;10.20;6.18;;;6.30;99.90;;;;;;5053792;28;20444;-64
2023/10/17 07:07:31;;;;;;;14.35;6.05;;;6.30;99.90;;;;;;5054042;28;20090;-64
2023/10/17 07:12:47;;;;;;;9.07;7.10;;;6.50;99.90;;;;;;5053626;28;20032;-64
2023/10/17 07:15:18;;;;;;;10.40;5.95;;;6.50;99.90;;;;;;5053727;28;20044;-64
2023/10/17 07:21:15;;;;;;;11.18;5.57;;;6.60;99.90;;;;;;5022614;28;20041;-64
2023/10/17 07:23:32;;;;;;;9.98;6.18;;;6.70;99.90;;;;;;5053405;28;20021;-64
2023/10/17 07:26:01;;;;;;;9.27;6.05;;;6.90;99.90;;;;;;5053563;28;20051;-64
2023/10/17 07:28:29;;;;;;;10.68;6.40;;;7.20;99.90;;;;;;5053585;28;20051;-64
2023/10/17 07:31:01;;;;;;;11.73;6.20;;;7.80;99.90;;;;;;5056535;28;20041;-65
2023/10/17 07:33:26;;;;;;;11.80;5.60;;;8.60;99.90;;;;;;5069996;28;20102;-64
2023/10/17 07:35:58;;;;;;;10.98;5.72;;;9.10;99.90;;;;;;5077890;28;20028;-64
2023/10/17 07:38:32;;;;;;;7.15;5.28;;;9.10;99.90;;;;;;5077698;28;20056;-63
2023/10/17 07:40:58;;;;;;;8.23;5.30;;;9.20;99.90;;;;;;5076622;28;20064;-64
2023/10/17 07:43:24;;;;;;;9.40;5.07;;;9.90;99.90;;;;;;5077665;28;20509;-64
2023/10/17 07:45:56;;;;;;;7.53;4.68;;;10.50;99.90;;;;;;5077578;28;20082;-64
2023/10/17 07:48:26;;;;;;;10.40;5.78;;;10.90;99.90;;;;;;5077277;28;20510;-64
2023/10/17 07:50:59;;;;;;;8.55;5.15;;;11.20;99.50;;;;;;5077503;28;20025;-64
2023/10/17 07:53:26;;;;;;;8.00;5.25;;;11.30;99.30;;;;;;5077632;28;20555;-64
2023/10/17 07:56:03;;;;;;;6.25;4.78;;;11.40;99.00;;;;;;5076228;28;20028;-64
2023/10/17 07:58:45;;;;;;;7.35;4.80;;;11.40;97.70;;;;;;5077415;28;20021;-63
2023/10/17 08:01:15;;;;;;;9.00;4.93;;;11.60;97.60;;;;;;5077288;28;20035;-63
2023/10/17 08:03:45;;;;;;;7.47;4.75;;;12.10;97.00;;;;;;5077275;28;20032;-64
2023/10/17 08:06:12;;;;;;;9.15;4.90;;;12.30;95.50;;;;;;5076975;28;20036;-64
2023/10/17 08:08:43;;;;;;;7.47;4.78;;;12.70;94.90;;;;;;5076902;28;20036;-64
2023/10/17 08:11:26;;;;;;;7.20;4.82;;;13.20;93.60;;;;;;5076813;28;20089;-64
2023/10/17 08:13:58;;;;;;;8.07;5.15;;;13.70;92.70;;;;;;5075747;28;20032;-64
2023/10/17 08:16:29;;;;;;;5.80;4.28;;;14.10;91.70;;;;;;5076673;28;20028;-64
2023/10/17 08:18:59;;;;;;;7.18;4.28;;;14.60;90.00;;;;;;5076421;28;20024;-65
2023/10/17 08:23:57;;;;;;;10.43;4.75;;;15.50;84.20;;;;;;5078358;28;20507;-65
2023/10/17 08:26:28;;;;;;;6.47;3.50;;;16.00;81.50;;;;;;5078364;28;20033;-64
2023/10/17 08:28:56;;;;;;;7.57;5.05;;;15.90;79.00;;;;;;5075402;28;20055;-63
2023/10/17 08:31:44;;;;;;;5.93;3.83;;;15.60;79.20;;;;;;5075272;28;20027;-64
2023/10/17 08:34:12;;;;;;;6.20;4.47;;;15.10;79.00;;;;;;5075218;28;20085;-64
2023/10/17 08:42:14;;;;;;;5.90;4.40;;;14.40;81.30;;;;;;5052478;28;20060;-64
2023/10/17 08:44:43;;;;;;;6.38;4.20;;;14.70;81.20;;;;;;5076584;28;20047;-64
2023/10/17 08:47:16;;;;;;;8.27;4.07;;;15.70;79.30;;;;;;5074808;28;20040;-64
2023/10/17 08:49:54;;;;;;;7.45;4.47;;;15.60;77.80;;;;;;5076506;28;20081;-64
2023/10/17 08:52:27;;;;;;;6.57;4.13;;;15.50;77.50;;;;;;5076551;28;20107;-64
2023/10/17 08:54:54;;;;;;;7.57;4.20;;;15.40;78.40;;;;;;5076562;28;20052;-64
2023/10/17 08:57:20;;;;;;;5.55;3.58;;;15.00;79.20;;;;;;5076579;28;20078;-64
2023/10/17 09:04:49;;;;;;;7.53;3.95;;;16.10;77.70;;;;;;5076065;28;20116;-64
2023/10/17 09:07:31;;;;;;;9.30;3.90;;;15.70;77.00;;;;;;5075872;28;20108;-64
2023/10/17 09:10:07;;;;;;;6.00;3.70;;;15.00;79.00;;;;;;5076321;28;20114;-64
2023/10/17 09:12:42;;;;;;;5.47;3.30;;;14.80;80.00;;;;;;5076267;28;20047;-64
2023/10/17 09:15:39;;;;;;;4.85;3.78;;;15.30;79.30;;;;;;5076193;28;20113;-65
2023/10/17 09:18:08;;;;;;;6.22;3.33;;;16.40;76.90;;;;;;5075967;28;20456;-64
2023/10/17 09:20:39;;;;;;;;;;;16.00;76.40;;;;;;5074944;28;20063;-64
2023/10/17 09:23:24;;;;;;;4.57;2.97;;;16.60;75.90;;;;;;5075811;28;19912;-64
2023/10/17 09:26:12;;;;;;;5.45;3.22;;;16.80;73.80;;;;;;5075793;28;20020;-64
2023/10/17 09:28:39;;;;;;;7.72;3.17;;;16.80;73.00;;;;;;5075461;28;20040;-62
2023/10/17 09:31:08;;;;;;;5.15;2.85;;;16.60;75.10;;;;;;5074256;28;20388;-64
2023/10/17 09:33:44;;;;;;;3.55;2.85;;;17.20;72.90;;;;;;5058162;28;20142;-63
2023/10/17 09:36:11;;;;;;;5.80;2.38;;;17.30;71.60;;;;;;5055490;28;20480;-64
2023/10/17 09:38:43;;;;;;;6.13;2.35;;;16.80;71.60;;;;;;5055645;28;20082;-63
2023/10/17 09:41:11;;;;;;;8.32;2.80;;;16.40;72.90;;;;;;5056249;28;20047;-64
2023/10/17 09:43:38;;;;;;;3.65;2.83;;;15.40;74.20;;;;;;5038247;28;20021;-64
2023/10/17 09:46:14;;;;;;;3.40;2.70;;;15.00;75.40;;;;;;5055102;28;20035;-64
2023/10/17 09:48:45;;;;;;;4.10;2.50;;;15.00;76.80;;;;;;5055558;28;20042;-65
2023/10/17 09:51:22;;;;;;;2.83;2.60;;;15.50;76.70;;;;;;5055605;28;20051;-64
2023/10/17 09:54:00;;;;;;;4.70;2.63;;;15.70;74.00;;;;;;5054563;28;20112;-64
2023/10/17 09:56:34;;;;;;;2.37;2.17;;;15.60;75.40;;;;;;5055043;28;20029;-64
2023/10/17 09:59:07;;;;;;;6.75;2.63;;;15.80;74.30;;;;;;5055037;28;20274;-64
2023/10/17 10:01:35;;;;;;;6.38;2.10;;;15.90;74.60;;;;;;5055421;28;20044;-64
2023/10/17 10:04:01;;;;;;;6.97;2.80;;;15.80;74.50;;;;;;5054874;28;20017;-65
2023/10/17 10:06:32;;;;;;;7.60;2.47;;;15.90;74.30;;;;;;5054605;28;20500;-64
2023/10/17 10:09:13;;;;;;;2.80;2.13;;;15.50;75.50;;;;;;5055439;28;20029;-64
2023/10/17 10:11:51;;;;;;;6.07;2.50;;;15.90;75.10;;;;;;5037115;28;20029;-64
2023/10/17 10:14:23;;;;;;;4.05;3.55;;;16.20;73.70;;;;;;5037696;28;20024;-64
2023/10/17 10:16:53;;;;;;;7.80;2.78;;;16.10;73.70;;;;;;5054690;28;20033;-64
2023/10/17 10:19:21;;;;;;;4.85;2.75;;;16.20;74.00;;;;;;5055037;28;20031;-68
2023/10/17 10:21:58;;;;;;;3.58;2.47;;;15.70;74.00;;;;;;5054769;28;20025;-65
2023/10/17 10:24:27;;;;;;;4.30;3.08;;;15.80;74.80;;;;;;5054633;28;20461;-64
2023/10/17 10:27:14;;;;;;;8.07;3.28;;;16.00;74.60;;;;;;5054490;28;20029;-64
2023/10/17 10:29:40;;;;;;;2.90;2.55;;;15.70;74.20;;;;;;5054178;28;20052;-64
2023/10/17 10:32:26;;;;;;;5.38;3.35;;;15.30;75.10;;;;;;5054553;28;20124;-64
2023/10/17 10:34:52;;;;;;;8.10;3.00;;;15.10;76.40;;;;;;5053978;28;20025;-64
2023/10/17 10:37:20;;;;;;;5.43;2.80;;;14.90;76.00;;;;;;5054794;28;20029;-64
2023/10/17 10:40:11;;;;;;;5.65;2.53;;;15.20;76.00;;;;;;5054637;28;20111;-72
2023/10/17 10:42:53;;;;;;;3.88;2.33;;;15.30;74.00;;;;;;5056770;28;20021;-64
2023/10/17 10:45:35;;;;;;;7.18;2.40;;;14.60;75.40;;;;;;5056128;28;20029;-64
2023/10/17 10:48:04;;;;;;;4.38;2.58;;;14.70;76.40;;;;;;5054290;28;20024;-64
2023/10/17 10:50:31;;;;;;;;;;;14.80;76.00;;;;;;5054601;28;20051;-64
2023/10/17 10:53:17;;;;;;;6.50;2.55;;;14.80;76.30;;;;;;5036521;28;20003;-64
2023/10/17 10:55:42;;;;;;;4.35;2.30;;;15.40;76.50;;;;;;5053895;28;20102;-64
2023/10/17 10:58:10;;;;;;;6.10;2.85;;;16.00;74.50;;;;;;5054176;28;20021;-64
2023/10/17 11:00:36;;;;;;;4.45;2.20;;;16.30;73.10;;;;;;5054018;28;20017;-65
2023/10/17 11:03:06;;;;;;;4.78;2.85;;;16.20;73.10;;;;;;5053971;28;20554;-64
2023/10/17 11:05:33;;;;;;;4.40;2.30;;;15.70;72.60;;;;;;5053655;28;20462;-64
2023/10/17 11:08:02;;;;;;;5.05;2.20;;;15.30;73.60;;;;;;5036047;28;20033;-64
2023/10/17 11:10:29;;;;;;;;;;;14.80;74.40;;;;;;5054203;28;20039;-64
2023/10/17 11:12:55;;;;;;;7.85;2.30;;;14.70;75.80;;;;;;5035684;28;19947;-64
2023/10/17 11:15:27;;;;;;;5.47;1.98;;;14.80;75.80;;;;;;5054743;28;20033;-64
2023/10/17 11:18:00;;;;;;;5.10;2.00;;;14.80;75.30;;;;;;5054309;28;20044;-64
2023/10/17 11:20:26;;;;;;;3.72;1.70;;;14.90;74.00;;;;;;5054118;28;20025;-64
2023/10/17 11:22:53;;;;;;;3.35;1.65;;;14.80;75.20;;;;;;5054152;28;20465;-64
2023/10/17 11:25:27;;;;;;;2.78;1.70;;;14.70;73.90;;;;;;5056338;28;20033;-65
2023/10/17 11:28:00;;;;;;;3.50;1.63;;;14.80;74.50;;;;;;5054394;28;20028;-64
2023/10/17 11:30:32;;;;;;;2.80;2.00;;;15.40;74.40;;;;;;5053497;28;20037;-64
2023/10/17 11:33:05;;;;;;;3.97;1.40;;;15.60;73.00;;;;;;5053595;28;20477;-64
2023/10/17 11:35:34;;;;;;;3.38;1.60;;;15.90;72.00;;;;;;5035802;28;20457;-64
2023/10/17 11:38:01;;;;;;;2.22;1.65;;;15.50;71.70;;;;;;5053300;28;20025;-64
2023/10/17 11:40:44;;;;;;;1.88;1.70;;;15.50;72.70;;;;;;5053668;28;20048;-64
2023/10/17 11:43:15;;;;;;;4.28;1.75;;;15.40;71.10;;;;;;5053484;28;20033;-64
2023/10/17 11:45:41;;;;;;;4.28;1.67;;;15.00;72.90;;;;;;5053472;28;20025;-64
2023/10/17 11:48:31;;;;;;;2.67;1.92;;;15.10;74.60;;;;;;5035606;28;20496;-64
2023/10/17 11:51:04;;;;;;;2.65;1.70;;;15.40;73.50;;;;;;5053669;28;20021;-64
2023/10/17 11:53:30;;;;;;;2.45;1.65;;;14.70;73.40;;;;;;5053661;28;20021;-64
2023/10/17 11:55:56;;;;;;;2.85;1.60;;;14.40;75.00;;;;;;5053327;28;20068;-64
2023/10/17 11:58:25;;;;;;;2.20;1.77;;;14.80;74.60;;;;;;5035443;28;20106;-64
2023/10/17 12:00:53;;;;;;;2.42;1.73;;;15.40;72.50;;;;;;5053307;28;20021;-64
2023/10/17 12:03:20;;;;;;;3.55;1.67;;;15.30;72.70;;;;;;5053094;28;20055;-64
2023/10/17 12:05:46;;;;;;;2.13;1.55;;;15.40;72.20;;;;;;5035588;28;20029;-65
2023/10/17 12:08:22;;;;;;;1.98;1.58;;;16.00;71.90;;;;;;5034992;28;20075;-64
2023/10/17 12:10:51;;;;;;;2.80;1.48;;;16.70;70.50;;;;;;5053299;28;20477;-64
2023/10/17 12:13:20;;;;;;;2.85;1.70;;;17.50;68.60;;;;;;5053221;28;20029;-66
2023/10/17 12:15:46;;;;;;;2.25;1.40;;;17.90;66.20;;;;;;5054272;28;20068;-65
2023/10/17 12:18:15;;;;;;;3.67;1.70;;;18.10;65.30;;;;;;5057141;28;20457;-62
2023/10/17 12:20:41;;;;;;;2.28;1.60;;;18.10;65.00;;;;;;5058166;28;20438;-65
2023/10/17 12:23:11;;;;;;;3.80;1.38;;;17.70;65.20;;;;;;5058022;28;20044;-64
2023/10/17 12:25:37;;;;;;;2.33;1.63;;;18.00;65.40;;;;;;5058516;28;20029;-64
2023/10/17 12:28:06;;;;;;;4.53;1.52;;;18.40;64.00;;;;;;5057424;28;20029;-62
2023/10/17 12:30:35;;;;;;;1.38;1.15;;;18.60;63.80;;;;;;5038983;28;20112;-64
2023/10/17 12:33:03;;;;;;;1.65;1.00;;;17.90;63.10;;;;;;5056756;28;20053;-64
2023/10/17 12:35:29;;;;;;;2.83;1.20;;;17.40;64.50;;;;;;5056443;28;20029;-64
2023/10/17 12:37:59;;;;;;;2.05;1.20;;;17.20;64.30;;;;;;5056603;28;20028;-65
2023/10/17 12:40:25;;;;;;;1.30;0.88;;;17.40;65.10;;;;;;5056517;28;20476;-64
2023/10/17 12:42:52;;;;;;;2.25;0.90;;;17.10;63.70;;;;;;5038563;28;20063;-64
2023/10/17 12:45:19;;;;;;;2.08;1.23;;;16.30;65.00;;;;;;5056353;28;20025;-64
2023/10/17 12:47:45;;;;;;;2.42;0.98;;;16.30;66.30;;;;;;5056228;28;20464;-64
2023/10/17 12:50:12;;;;;;;4.60;1.08;;;16.50;63.50;;;;;;5056294;28;20150;-64
2023/10/17 12:52:38;;;;;;;2.30;0.95;;;16.50;64.40;;;;;;5038342;28;20032;-64
2023/10/17 12:55:07;;;;;;;4.85;1.05;;;16.70;64.20;;;;;;5056407;28;20102;-64
2023/10/17 12:57:38;;;;;;;1.90;0.70;;;16.50;63.90;;;;;;5056221;28;20149;-64
2023/10/17 13:00:11;;;;;;;5.38;0.80;;;16.70;64.00;;;;;;5056244;28;20473;-64
2023/10/17 13:02:40;;;;;;;3.28;1.00;;;17.00;62.80;;;;;;5056597;28;20031;-64
2023/10/17 13:05:09;;;;;;;;;;;16.80;62.80;;;;;;5056380;28;20346;-64
2023/10/17 13:07:39;;;;;;;2.65;1.10;;;16.50;63.90;;;;;;5055844;28;19909;-64
2023/10/17 13:10:08;;;;;;;2.45;0.93;;;16.00;63.70;;;;;;5055723;28;20044;-64
2023/10/17 13:12:35;;;;;;;1.85;0.90;;;15.60;64.30;;;;;;5055601;28;20028;-64
2023/10/17 13:15:01;;;;;;;1.30;0.98;;;15.20;66.20;;;;;;5055431;28;20055;-63
2023/10/17 13:17:28;;;;;;;5.47;1.10;;;15.20;66.30;;;;;;5055914;28;20028;-64
2023/10/17 13:19:55;;;;;;;1.05;0.80;;;14.60;65.80;;;;;;5055930;28;20082;-64
2023/10/17 13:22:22;;;;;;;1.73;0.90;;;14.30;67.40;;;;;;5037932;28;20029;-64
2023/10/17 13:24:50;;;;;;;2.58;0.70;;;14.20;67.20;;;;;;5055980;28;20499;-64
2023/10/17 13:27:15;;;;;;;1.30;1.10;;;14.30;68.20;;;;;;5056129;28;20090;-64
2023/10/17 13:29:42;;;;;;;2.15;0.82;;;14.20;66.90;;;;;;5038061;28;20532;-64
2023/10/17 13:32:08;;;;;;;3.90;1.20;;;14.10;68.60;;;;;;5055987;28;20102;-64
2023/10/17 13:34:35;;;;;;;1.98;0.85;;;14.00;68.60;;;;;;5055713;28;20107;-64
2023/10/17 13:37:04;;;;;;;2.28;0.80;;;14.10;68.10;;;;;;5055087;28;20152;-64
2023/10/17 13:39:33;;;;;;;0.98;0.80;;;14.00;68.00;;;;;;5055498;28;20021;-63
2023/10/17 13:42:04;;;;;;;3.35;0.80;;;13.70;69.10;;;;;;5055442;28;20116;-64
2023/10/17 13:44:30;;;;;;;4.05;0.95;;;13.70;68.70;;;;;;5055457;28;20343;-64
2023/10/17 13:46:56;;;;;;;5.53;0.75;;;13.70;69.40;;;;;;5055305;28;20028;-64
2023/10/17 13:49:22;;;;;;;2.03;0.88;;;13.60;69.10;;;;;;5055011;28;20122;-64
2023/10/17 13:51:48;;;;;;;2.50;0.82;;;13.70;69.50;;;;;;5055332;28;20029;-64
2023/10/17 13:54:15;;;;;;;2.17;0.93;;;13.60;68.50;;;;;;5055112;28;20388;-64
2023/10/17 13:56:43;;;;;;;1.88;0.80;;;13.60;69.70;;;;;;5055145;28;20376;-63
2023/10/17 13:59:09;;;;;;;5.63;1.07;;;13.20;69.70;;;;;;5037268;28;20025;-64
2023/10/17 14:01:42;;;;;;;2.03;0.68;;;13.20;69.80;;;;;;5054773;28;20484;-64
2023/10/17 14:04:12;;;;;;;4.55;0.90;;;13.10;70.50;;;;;;5055162;28;20056;-64
2023/10/17 14:06:45;;;;;;;1.58;0.90;;;13.00;70.30;;;;;;5054935;28;20451;-64
2023/10/17 14:09:17;;;;;;;5.13;0.93;;;13.00;70.60;;;;;;5055132;28;20036;-64
2023/10/17 14:11:46;;;;;;;2.60;0.70;;;12.90;70.50;;;;;;5054900;28;20090;-68
2023/10/17 14:14:13;;;;;;;0.73;0.55;;;12.90;70.90;;;;;;5054861;28;20531;-64
2023/10/17 14:16:42;;;;;;;3.17;1.35;;;12.80;71.00;;;;;;5036908;28;20025;-64
2023/10/17 14:19:28;;;;;;;3.03;0.75;;;12.80;70.50;;;;;;5036748;28;20108;-64
2023/10/17 14:25:00;;;;;;;1.38;0.80;;;12.80;71.00;;;;;;5054734;28;20039;-64
2023/10/17 14:27:29;;;;;;;1.60;0.57;;;12.60;70.80;;;;;;5036393;28;20032;-64
2023/10/17 14:29:59;;;;;;;2.60;0.70;;;12.50;71.30;;;;;;5054337;28;20116;-64
2023/10/17 14:32:29;;;;;;;2.70;0.70;;;12.50;71.30;;;;;;5048767;28;20075;-65
2023/10/17 14:34:58;;;;;;;3.72;0.70;;;12.40;72.00;;;;;;5074453;28;20024;-64
2023/10/17 14:37:27;;;;;;;2.90;1.10;;;12.40;72.10;;;;;;5074339;28;20028;-64
2023/10/17 14:39:54;;;;;;;8.73;0.77;;;12.30;71.60;;;;;;5073706;28;20415;-64
2023/10/17 14:42:20;;;;;;;1.38;0.80;;;12.30;71.90;;;;;;5072907;28;20036;-64
2023/10/17 14:44:46;;;;;;;3.25;0.50;;;12.30;71.80;;;;;;5074540;28;20456;-64
2023/10/17 14:47:14;;;;;;;1.17;0.47;;;12.30;72.00;;;;;;5073851;28;20497;-64
2023/10/17 14:49:41;;;;;;;3.97;0.60;;;12.30;72.30;;;;;;5073082;28;20063;-64
2023/10/17 14:52:06;;;;;;;3.00;0.40;;;12.30;72.30;;;;;;5074122;28;20031;-64
2023/10/17 14:54:34;;;;;;;3.75;0.90;;;12.30;72.40;;;;;;5074070;28;20021;-64
2023/10/17 14:57:06;;;;;;;1.88;0.57;;;12.30;71.90;;;;;;5074054;28;20028;-65
2023/10/17 14:59:38;;;;;;;3.13;0.60;;;12.20;72.90;;;;;;5074228;28;20028;-64
2023/10/17 15:02:05;;;;;;;3.15;0.75;;;12.10;73.00;;;;;;5074221;28;20107;-63
2023/10/17 15:04:31;;;;;;;5.38;0.60;;;12.10;73.20;;;;;;5074051;28;20024;-64
2023/10/17 15:06:57;;;;;;;10.15;0.50;;;12.10;73.20;;;;;;5073870;28;20028;-64
2023/10/17 15:09:24;;;;;;;3.47;0.70;;;12.00;73.00;;;;;;5073864;28;20029;-64
2023/10/17 15:11:49;;;;;;;2.58;0.52;;;11.90;73.30;;;;;;5074122;28;20028;-64
2023/10/17 15:14:15;;;;;;;4.25;0.70;;;11.90;73.10;;;;;;5073768;28;20020;-64
2023/10/17 15:16:42;;;;;;;4.50;0.80;;;11.90;73.40;;;;;;5073440;28;20107;-64
2023/10/17 15:19:08;;;;;;;1.30;0.50;;;11.60;73.50;;;;;;5073809;28;20035;-64
2023/10/17 15:21:34;;;;;;;2.85;0.47;;;11.80;73.60;;;;;;5072496;28;20035;-64
2023/10/17 15:24:01;;;;;;;4.03;0.95;;;11.70;73.80;;;;;;5073084;28;20032;-64
2023/10/17 15:26:27;;;;;;;2.10;0.70;;;11.60;74.40;;;;;;5073796;28;20028;-64